createdAt,value
2023-03-10T00:01:12.098Z,97773.16
2023-03-10T00:03:40.372Z,97770.28
2023-03-10T00:06:09.386Z,97786.19
2023-03-10T00:08:37.335Z,97789.53
2023-03-10T00:11:05.447Z,97799.66
2023-03-10T00:13:33.408Z,97798.44
2023-03-10T00:16:02.926Z,97803.44
2023-03-10T00:18:32.622Z,97802.66
2023-03-10T00:21:01.227Z,97806.78
2023-03-10T00:23:29.421Z,97806.00
2023-03-10T00:25:58.620Z,97811.78
2023-03-10T00:28:27.755Z,97810.13
2023-03-10T00:31:00.747Z,97814.25
2023-03-10T00:33:31.330Z,97829.31
2023-03-10T00:36:04.674Z,97826.22
2023-03-10T00:38:32.998Z,97834.63
2023-03-10T00:41:01.863Z,97836.09
2023-03-10T00:43:30.647Z,97846.59
2023-03-10T00:45:58.868Z,97856.25
2023-03-10T00:48:27.229Z,97860.41
2023-03-10T00:50:59.080Z,97857.72
2023-03-10T00:53:27.619Z,97862.03
2023-03-10T00:56:01.068Z,97871.13
2023-03-10T00:58:29.867Z,97882.06
2023-03-10T01:00:58.033Z,97890.91
2023-03-10T01:03:27.834Z,97912.78
2023-03-10T01:05:58.527Z,97918.13
2023-03-10T01:08:26.745Z,97938.34
2023-03-10T01:10:54.739Z,97944.50
2023-03-10T01:13:22.935Z,97939.78
2023-03-10T01:15:51.284Z,97959.38
2023-03-10T01:18:20.786Z,97975.47
2023-03-10T01:20:49.622Z,97983.28
2023-03-10T01:23:21.957Z,97992.34
2023-03-10T01:25:50.864Z,98004.88
2023-03-10T01:28:19.696Z,97992.91
2023-03-10T01:30:48.826Z,98001.34
2023-03-10T01:33:18.591Z,98019.47
2023-03-10T01:35:46.646Z,98023.97
2023-03-10T01:38:15.364Z,98037.91
2023-03-10T01:40:49.870Z,98049.66
2023-03-10T01:43:35.334Z,98057.81
2023-03-10T01:46:40.874Z,98077.09
2023-03-10T01:49:15.662Z,98067.97
2023-03-10T01:51:48.674Z,98070.41
2023-03-10T01:54:20.106Z,98065.03
2023-03-10T01:56:52.359Z,98073.00
2023-03-10T01:59:21.895Z,98083.06
2023-03-10T02:01:51.878Z,98084.03
2023-03-10T02:04:24.564Z,98099.66
2023-03-10T02:06:53.342Z,98108.00
2023-03-10T02:09:22.716Z,98125.47
2023-03-10T02:11:52.894Z,98125.47
2023-03-10T02:14:21.323Z,98129.97
2023-03-10T02:16:49.322Z,98142.06
2023-03-10T02:19:30.837Z,98158.31
2023-03-10T02:22:06.129Z,98156.25
2023-03-10T02:24:43.072Z,98161.59
2023-03-10T02:27:17.365Z,98180.16
2023-03-10T02:29:59.406Z,98188.75
2023-03-10T02:32:29.771Z,98195.06
2023-03-10T02:34:57.811Z,98202.22
2023-03-10T02:37:30.098Z,98202.97
2023-03-10T02:39:58.934Z,98202.31
2023-03-10T02:42:32.460Z,98229.63
2023-03-10T02:45:00.874Z,98233.03
2023-03-10T02:47:29.091Z,98251.69
2023-03-10T02:49:56.999Z,98256.94
2023-03-10T02:52:33.453Z,98288.09
2023-03-10T02:55:01.438Z,98319.94
2023-03-10T02:57:30.902Z,98316.72
2023-03-10T02:59:58.913Z,98362.72
2023-03-10T03:02:26.939Z,98357.34
2023-03-10T03:04:54.915Z,98342.50
2023-03-10T03:07:22.780Z,98369.75
2023-03-10T03:09:50.724Z,98374.22
2023-03-10T03:12:18.640Z,98389.81
2023-03-10T03:14:48.907Z,98400.06
2023-03-10T03:17:16.842Z,98403.75
2023-03-10T03:19:44.888Z,98392.09
2023-03-10T03:22:13.090Z,98426.25
2023-03-10T03:24:41.343Z,98440.75
2023-03-10T03:27:09.544Z,98447.44
2023-03-10T03:29:37.473Z,98473.91
2023-03-10T03:32:08.019Z,98471.09
2023-03-10T03:34:35.981Z,98500.88
2023-03-10T03:37:04.045Z,98499.34
2023-03-10T03:39:32.265Z,98528.50
2023-03-10T03:42:00.175Z,98518.50
2023-03-10T03:44:28.393Z,98540.31
2023-03-10T03:46:56.389Z,98549.16
2023-03-10T03:49:25.713Z,98561.16
2023-03-10T03:51:54.019Z,98597.31
2023-03-10T03:54:21.916Z,98590.16
2023-03-10T03:56:49.852Z,98609.31
2023-03-10T03:59:17.996Z,98587.50
2023-03-10T04:01:46.169Z,98621.81
2023-03-10T04:04:14.198Z,98628.66
2023-03-10T04:06:43.640Z,98633.97
2023-03-10T04:09:13.725Z,98656.31
2023-03-10T04:11:41.552Z,98670.97
2023-03-10T04:14:09.498Z,98667.97
2023-03-10T04:16:37.380Z,98676.94
2023-03-10T04:19:07.680Z,98677.78
2023-03-10T04:21:36.048Z,98670.28
2023-03-10T04:24:06.547Z,98688.59
2023-03-10T04:26:34.602Z,98688.78
2023-03-10T04:29:02.566Z,98695.28
2023-03-10T04:31:30.613Z,98708.59
2023-03-10T04:33:58.547Z,98728.41
2023-03-10T04:36:26.470Z,98749.53
2023-03-10T04:38:54.649Z,98749.88
2023-03-10T04:41:24.003Z,98762.03
2023-03-10T04:43:51.998Z,98769.53
2023-03-10T04:46:20.016Z,98787.31
2023-03-10T04:48:47.905Z,98782.34
2023-03-10T04:51:15.890Z,98820.63
2023-03-10T04:53:43.825Z,98811.78
2023-03-10T04:56:12.796Z,98826.44
2023-03-10T04:58:42.380Z,98858.72
2023-03-10T05:01:12.817Z,98865.25
2023-03-10T05:03:41.036Z,98853.56
2023-03-10T05:06:13.377Z,98854.34
2023-03-10T05:08:41.569Z,98899.53
2023-03-10T05:11:10.431Z,98912.63
2023-03-10T05:13:38.402Z,98964.00
2023-03-10T05:16:13.896Z,98969.88
2023-03-10T05:18:41.912Z,98992.44
2023-03-10T05:21:10.002Z,98992.06
2023-03-10T05:23:38.605Z,99020.50
2023-03-10T05:26:07.375Z,99049.16
2023-03-10T05:28:35.675Z,99006.59
2023-03-10T05:31:11.773Z,98993.28
2023-03-10T05:33:39.714Z,99005.22
2023-03-10T05:36:09.172Z,99043.31
2023-03-10T05:38:37.635Z,99062.22
2023-03-10T05:41:09.076Z,99058.44
2023-03-10T05:43:38.413Z,99087.31
2023-03-10T05:46:07.096Z,99122.56
2023-03-10T05:48:36.958Z,99135.28
2023-03-10T05:51:07.521Z,99122.69
2023-03-10T05:53:37.733Z,99154.28
2023-03-10T05:56:10.581Z,99097.00
2023-03-10T05:58:39.176Z,99100.41
2023-03-10T06:01:07.904Z,99100.94
2023-03-10T06:03:38.677Z,99102.66
2023-03-10T06:06:07.868Z,99122.41
2023-03-10T06:08:37.117Z,99130.16
2023-03-10T06:11:06.286Z,99145.44
2023-03-10T06:13:34.258Z,99135.97
2023-03-10T06:16:04.905Z,99142.03
2023-03-10T06:18:34.059Z,99171.22
2023-03-10T06:21:06.609Z,99192.66
2023-03-10T06:23:34.422Z,99210.44
2023-03-10T06:26:06.141Z,99202.56
2023-03-10T06:28:36.723Z,99196.59
2023-03-10T06:31:08.241Z,99210.44
2023-03-10T06:33:37.030Z,99212.78
2023-03-10T06:36:08.085Z,99230.81
2023-03-10T06:38:36.011Z,99223.97
2023-03-10T06:41:04.287Z,99248.72
2023-03-10T06:43:32.924Z,99238.94
2023-03-10T06:46:01.337Z,99249.56
2023-03-10T06:48:29.245Z,99253.47
2023-03-10T06:50:57.294Z,99266.06
2023-03-10T06:53:28.274Z,99272.22
2023-03-10T06:56:00.291Z,99282.84
2023-03-10T06:58:28.519Z,99315.56
2023-03-10T07:00:57.064Z,99350.78
2023-03-10T07:03:26.343Z,99348.00
2023-03-10T07:05:54.296Z,99353.03
2023-03-10T07:08:22.736Z,99391.09
2023-03-10T07:10:52.161Z,99386.91
2023-03-10T07:13:22.053Z,99423.13
2023-03-10T07:15:50.752Z,99401.75
2023-03-10T07:18:18.856Z,99397.28
2023-03-10T07:20:47.932Z,99416.72
2023-03-10T07:23:16.521Z,99422.44
2023-03-10T07:25:44.364Z,99446.78
2023-03-10T07:28:13.815Z,99440.34
2023-03-10T07:30:42.096Z,99468.63
2023-03-10T07:33:10.433Z,99480.09
2023-03-10T07:35:39.306Z,99487.78
2023-03-10T07:38:07.348Z,99492.13
2023-03-10T07:40:35.534Z,99485.56
2023-03-10T07:43:03.497Z,99489.03
2023-03-10T07:45:33.709Z,99479.72
2023-03-10T07:48:01.706Z,99508.09
2023-03-10T07:50:29.947Z,99526.59
2023-03-10T07:52:57.863Z,99543.13
2023-03-10T07:55:26.023Z,99559.19
2023-03-10T07:57:57.008Z,99582.13
2023-03-10T08:00:25.425Z,99594.03
2023-03-10T08:02:54.801Z,99594.03
2023-03-10T08:05:23.024Z,99613.03
2023-03-10T08:07:51.082Z,99620.28
2023-03-10T08:10:20.743Z,99652.06
2023-03-10T08:12:48.688Z,99658.91
2023-03-10T08:15:17.087Z,99684.66
2023-03-10T08:17:45.247Z,99698.66
2023-03-10T08:20:15.739Z,99717.16
2023-03-10T08:22:43.668Z,99720.50
2023-03-10T08:25:12.821Z,99738.44
2023-03-10T08:27:41.599Z,99751.72
2023-03-10T08:30:10.940Z,99760.25
2023-03-10T08:32:39.139Z,99775.13
2023-03-10T08:35:08.883Z,99773.31
2023-03-10T08:37:38.779Z,99774.00
2023-03-10T08:40:08.280Z,99772.38
2023-03-10T08:42:37.171Z,99786.91
2023-03-10T08:45:08.518Z,99797.81
2023-03-10T08:47:37.329Z,99807.88
2023-03-10T08:50:07.044Z,99849.31
2023-03-10T08:52:35.295Z,99858.25
2023-03-10T08:55:05.684Z,99871.31
2023-03-10T08:57:34.062Z,99873.44
2023-03-10T09:00:02.029Z,99892.03
2023-03-10T09:02:30.442Z,99904.59
2023-03-10T09:04:58.359Z,99905.19
2023-03-10T09:07:26.555Z,99893.44
2023-03-10T09:09:54.473Z,99906.63
2023-03-10T09:12:24.029Z,99910.25
2023-03-10T09:14:52.212Z,99908.69
2023-03-10T09:17:20.313Z,99920.19
2023-03-10T09:19:49.020Z,99896.91
2023-03-10T09:22:17.276Z,99903.75
2023-03-10T09:24:45.470Z,99903.53
2023-03-10T09:27:13.375Z,99906.75
2023-03-10T09:29:43.775Z,99926.22
2023-03-10T09:32:12.351Z,99935.16
2023-03-10T09:34:40.648Z,99945.94
2023-03-10T09:37:09.226Z,99967.56
2023-03-10T09:39:37.159Z,99978.19
2023-03-10T09:42:38.333Z,99965.13
2023-03-10T09:45:19.576Z,99973.47
2023-03-10T09:47:56.841Z,99970.78
2023-03-10T09:50:31.391Z,99981.34
2023-03-10T09:53:04.299Z,100003.97
2023-03-10T09:55:42.458Z,99995.72
2023-03-10T09:58:21.898Z,99995.78
2023-03-10T10:00:52.833Z,100006.31
2023-03-10T10:03:23.257Z,100004.47
2023-03-10T10:05:55.549Z,100032.09
2023-03-10T10:08:28.834Z,100049.91
2023-03-10T10:10:59.157Z,100070.13
2023-03-10T10:13:30.710Z,100083.16
2023-03-10T10:16:24.378Z,100085.81
2023-03-10T10:19:04.351Z,100089.41
2023-03-10T10:21:42.708Z,100069.97
2023-03-10T10:24:11.493Z,100060.75
2023-03-10T10:26:39.309Z,100088.97
2023-03-10T10:29:17.117Z,100100.47
2023-03-10T10:32:18.210Z,100105.53
2023-03-10T10:34:48.751Z,100113.28
2023-03-10T10:37:28.236Z,100113.72
2023-03-10T10:39:59.028Z,100118.69
2023-03-10T10:42:30.350Z,100141.53
2023-03-10T10:45:00.201Z,100166.13
2023-03-10T10:47:32.700Z,100176.69
2023-03-10T10:50:19.928Z,100183.13
2023-03-10T10:52:50.647Z,100184.47
2023-03-10T10:55:34.511Z,100194.41
2023-03-10T10:58:04.254Z,100168.72
2023-03-10T11:00:34.611Z,100175.03
2023-03-10T11:03:20.574Z,100200.13
2023-03-10T11:05:48.791Z,100227.28
2023-03-10T11:08:30.710Z,100240.91
2023-03-10T11:11:04.439Z,100215.28
2023-03-10T11:13:43.183Z,100195.28
2023-03-10T11:19:23.172Z,100188.72
2023-03-10T11:21:55.919Z,100196.66
2023-03-10T11:24:33.184Z,100212.41
2023-03-10T11:27:05.727Z,100201.19
2023-03-10T11:29:49.215Z,100213.03
2023-03-10T11:32:26.710Z,100241.13
2023-03-10T11:34:56.571Z,100256.44
2023-03-10T11:37:33.406Z,100289.16
2023-03-10T11:40:16.359Z,100294.50
2023-03-10T11:42:52.571Z,100302.25
2023-03-10T11:45:28.326Z,100312.66
2023-03-10T11:48:07.892Z,100306.22
2023-03-10T11:50:46.536Z,100297.38
2023-03-10T11:53:20.080Z,100320.16
2023-03-10T11:55:50.794Z,100309.34
2023-03-10T11:58:27.111Z,100279.69
2023-03-10T12:00:55.823Z,100273.75
2023-03-10T12:03:40.219Z,100278.34
2023-03-10T12:06:15.275Z,100280.31
2023-03-10T12:08:44.125Z,100273.38
2023-03-10T12:11:17.961Z,100264.16
2023-03-10T12:13:48.336Z,100263.00
2023-03-10T12:19:32.137Z,100302.41
2023-03-10T12:22:26.505Z,100289.16
2023-03-10T12:24:54.433Z,100288.50
2023-03-10T12:27:22.288Z,100283.56
2023-03-10T12:29:50.226Z,100317.66
2023-03-10T12:32:41.916Z,100331.69
2023-03-10T12:35:46.278Z,100310.78
2023-03-10T12:38:37.269Z,100288.06
2023-03-10T12:41:05.860Z,100290.06
2023-03-10T12:44:01.616Z,100283.66
2023-03-10T12:46:41.561Z,100303.97
2023-03-10T12:49:30.038Z,100324.97
2023-03-10T12:52:14.078Z,100310.25
2023-03-10T12:54:53.590Z,100302.84
2023-03-10T12:57:29.939Z,100321.56
2023-03-10T13:00:03.007Z,100316.72
2023-03-10T13:02:37.440Z,100326.00
2023-03-10T13:05:08.584Z,100326.94
2023-03-10T13:07:36.844Z,100341.56
2023-03-10T13:10:08.141Z,100363.09
2023-03-10T13:12:48.172Z,100359.16
2023-03-10T13:15:24.906Z,100347.38
2023-03-10T13:17:55.253Z,100362.91
2023-03-10T13:20:24.079Z,100350.22
2023-03-10T13:22:56.451Z,100342.94
2023-03-10T13:25:27.717Z,100353.50
2023-03-10T13:27:57.466Z,100385.78
2023-03-10T13:30:27.914Z,100384.22
2023-03-10T13:32:57.489Z,100389.31
2023-03-10T13:35:31.265Z,100404.63
2023-03-10T13:38:12.300Z,100382.66
2023-03-10T13:40:45.125Z,100359.47
2023-03-10T13:43:36.674Z,100330.59
2023-03-10T13:46:09.691Z,100339.34
2023-03-10T13:48:38.685Z,100327.81
2023-03-10T13:51:20.322Z,100311.19
2023-03-10T13:53:52.614Z,100322.47
2023-03-10T13:56:24.816Z,100316.69
2023-03-10T13:58:56.164Z,100303.06
2023-03-10T14:01:26.048Z,100308.00
2023-03-10T14:03:57.708Z,100305.31
2023-03-10T14:06:27.048Z,100298.53
2023-03-10T14:08:55.526Z,100308.34
2023-03-10T14:11:33.245Z,100299.97
2023-03-10T14:14:01.906Z,100323.44
2023-03-10T14:16:50.849Z,100330.63
2023-03-10T14:19:48.253Z,100334.94
2023-03-10T14:22:38.126Z,100334.06
2023-03-10T14:25:17.196Z,100327.81
2023-03-10T14:27:48.814Z,100333.25
2023-03-10T14:30:21.923Z,100339.63
2023-03-10T14:32:53.781Z,100332.00
2023-03-10T14:35:23.813Z,100327.69
2023-03-10T14:37:53.274Z,100327.69
2023-03-10T14:40:23.646Z,100327.25
2023-03-10T14:42:55.663Z,100331.56
2023-03-10T14:45:30.697Z,100331.34
2023-03-10T14:48:00.346Z,100349.84
2023-03-10T14:50:29.900Z,100358.50
2023-03-10T14:52:57.809Z,100363.91
2023-03-10T14:55:26.061Z,100370.72
2023-03-10T14:58:00.081Z,100356.91
2023-03-10T15:00:28.442Z,100345.00
2023-03-10T15:02:56.372Z,100357.44
2023-03-10T15:05:34.598Z,100346.34
2023-03-10T15:08:05.325Z,100359.34
2023-03-10T15:10:37.198Z,100363.47
2023-03-10T15:13:06.495Z,100374.31
2023-03-10T15:15:39.617Z,100370.81
2023-03-10T15:18:08.313Z,100368.97
2023-03-10T15:20:36.362Z,100371.81
2023-03-10T15:23:04.337Z,100366.59
2023-03-10T15:25:32.305Z,100347.56
2023-03-10T15:28:00.299Z,100348.97
2023-03-10T15:30:32.179Z,100355.06
2023-03-10T15:33:00.316Z,100348.41
2023-03-10T15:35:29.282Z,100357.31
2023-03-10T15:37:58.184Z,100355.75
2023-03-10T15:40:29.121Z,100352.38
2023-03-10T15:42:57.892Z,100344.63
2023-03-10T15:45:26.427Z,100340.53
2023-03-10T15:47:55.987Z,100334.03
2023-03-10T15:50:24.349Z,100329.75
2023-03-10T15:52:54.369Z,100330.84
2023-03-10T15:55:23.416Z,100326.16
2023-03-10T15:57:51.686Z,100309.19
2023-03-10T16:00:21.713Z,100320.91
2023-03-10T16:02:51.220Z,100322.19
2023-03-10T16:05:21.199Z,100338.72
2023-03-10T16:07:49.109Z,100323.22
2023-03-10T16:10:19.084Z,100325.78
2023-03-10T16:12:47.298Z,100322.97
2023-03-10T16:15:18.091Z,100318.19
2023-03-10T16:17:46.672Z,100318.63
2023-03-10T16:20:17.053Z,100322.88
2023-03-10T16:22:46.735Z,100338.09
2023-03-10T16:25:16.325Z,100363.34
2023-03-10T16:27:44.673Z,100355.47
2023-03-10T16:30:15.042Z,100315.19
2023-03-10T16:32:45.610Z,100287.00
2023-03-10T16:35:13.779Z,100301.81
2023-03-10T16:37:42.119Z,100307.00
2023-03-10T16:40:13.653Z,100334.47
2023-03-10T16:42:45.543Z,100326.09
2023-03-10T16:45:13.791Z,100318.50
2023-03-10T16:47:43.941Z,100282.34
2023-03-10T16:50:14.345Z,100262.19
2023-03-10T16:52:43.104Z,100237.41
2023-03-10T16:55:17.420Z,100242.22
2023-03-10T16:57:46.560Z,100245.16
2023-03-10T17:00:15.904Z,100261.63
2023-03-10T17:02:43.771Z,100289.59
2023-03-10T17:05:13.819Z,100299.75
2023-03-10T17:07:54.693Z,100305.50
2023-03-10T17:10:26.913Z,100313.78
2023-03-10T17:12:55.030Z,100330.09
2023-03-10T17:15:22.885Z,100353.44
2023-03-10T17:17:50.888Z,100360.06
2023-03-10T17:20:20.356Z,100347.09
2023-03-10T17:22:48.363Z,100344.97
2023-03-10T17:25:16.245Z,100345.38
2023-03-10T17:27:45.805Z,100338.72
2023-03-10T17:30:15.554Z,100330.13
2023-03-10T17:32:43.559Z,100343.88
2023-03-10T17:35:11.912Z,100334.34
2023-03-10T17:37:41.049Z,100322.22
2023-03-10T17:40:10.555Z,100332.31
2023-03-10T17:42:38.388Z,100330.03
2023-03-10T17:45:09.366Z,100348.03
2023-03-10T17:47:37.579Z,100347.44
2023-03-10T17:50:07.419Z,100352.09
2023-03-10T17:52:35.274Z,100346.25
2023-03-10T17:55:03.151Z,100349.22
2023-03-10T17:57:31.053Z,100335.28
2023-03-10T17:59:59.212Z,100334.69
2023-03-10T18:02:28.689Z,100337.75
2023-03-10T18:04:56.928Z,100327.47
2023-03-10T18:07:25.025Z,100310.16
2023-03-10T18:09:53.819Z,100321.94
2023-03-10T18:12:21.724Z,100329.47
2023-03-10T18:14:49.547Z,100328.03
2023-03-10T18:17:17.463Z,100331.09
2023-03-10T18:19:46.765Z,100335.13
2023-03-10T18:22:14.710Z,100333.81
2023-03-10T18:24:42.689Z,100330.56
2023-03-10T18:27:10.688Z,100317.72
2023-03-10T18:29:38.823Z,100302.22
2023-03-10T18:32:07.108Z,100305.31
2023-03-10T18:34:35.135Z,100318.56
2023-03-10T18:37:04.567Z,100341.94
2023-03-10T18:39:32.444Z,100352.53
2023-03-10T18:42:02.989Z,100345.13
2023-03-10T18:44:31.041Z,100330.72
2023-03-10T18:46:59.021Z,100314.53
2023-03-10T18:49:26.955Z,100299.16
2023-03-10T18:51:54.877Z,100316.63
2023-03-10T18:54:24.226Z,100335.78
2023-03-10T18:56:52.119Z,100356.72
2023-03-10T18:59:20.244Z,100356.09
2023-03-10T19:01:48.230Z,100354.78
2023-03-10T19:04:16.179Z,100370.91
2023-03-10T19:06:44.102Z,100388.69
2023-03-10T19:09:12.976Z,100368.38
2023-03-10T19:11:42.469Z,100348.00
2023-03-10T19:14:10.431Z,100357.72
2023-03-10T19:16:39.876Z,100344.38
2023-03-10T19:19:08.289Z,100342.56
2023-03-10T19:21:36.444Z,100355.88
2023-03-10T19:24:04.643Z,100375.13
2023-03-10T19:26:33.470Z,100368.94
2023-03-10T19:29:03.103Z,100368.72
2023-03-10T19:31:31.189Z,100367.75
2023-03-10T19:34:00.529Z,100367.63
2023-03-10T19:36:29.763Z,100368.47
2023-03-10T19:38:57.623Z,100372.09
2023-03-10T19:41:25.615Z,100369.31
2023-03-10T19:43:54.711Z,100352.22
2023-03-10T19:46:24.108Z,100334.56
2023-03-10T19:48:52.060Z,100342.41
2023-03-10T19:51:21.972Z,100363.50
2023-03-10T19:53:51.503Z,100382.03
2023-03-10T19:56:23.145Z,100388.09
2023-03-10T19:58:51.758Z,100391.47
2023-03-10T20:01:25.453Z,100387.72
2023-03-10T20:03:54.772Z,100397.41
2023-03-10T20:06:22.855Z,100390.13
2023-03-10T20:08:51.608Z,100357.22
2023-03-10T20:11:19.926Z,100345.56
2023-03-10T20:13:48.964Z,100367.59
2023-03-10T20:16:18.595Z,100379.09
2023-03-10T20:18:47.975Z,100361.28
2023-03-10T20:21:16.967Z,100357.78
2023-03-10T20:23:47.736Z,100351.75
2023-03-10T20:26:16.781Z,100355.38
2023-03-10T20:28:45.541Z,100369.66
2023-03-10T20:31:17.259Z,100359.97
2023-03-10T20:33:45.552Z,100340.59
2023-03-10T20:36:16.081Z,100351.28
2023-03-10T20:38:45.417Z,100349.59
2023-03-10T20:41:13.803Z,100350.53
2023-03-10T20:43:41.946Z,100348.13
2023-03-10T20:46:10.706Z,100355.16
2023-03-10T20:48:39.144Z,100366.41
2023-03-10T20:51:07.373Z,100406.50
2023-03-10T20:53:37.449Z,100418.97
2023-03-10T20:56:11.393Z,100415.47
2023-03-10T20:58:40.064Z,100409.16
2023-03-10T21:01:08.080Z,100397.66
2023-03-10T21:03:36.243Z,100393.16
2023-03-10T21:06:04.492Z,100373.53
2023-03-10T21:08:32.428Z,100370.16
2023-03-10T21:11:02.204Z,100348.25
2023-03-10T21:13:30.871Z,100334.31
2023-03-10T21:16:00.147Z,100339.78
2023-03-10T21:18:28.245Z,100334.81
2023-03-10T21:20:56.326Z,100312.66
2023-03-10T21:23:24.408Z,100309.38
2023-03-10T21:25:52.434Z,100317.38
2023-03-10T21:28:24.017Z,100345.97
2023-03-10T21:30:51.873Z,100350.78
2023-03-10T21:33:23.016Z,100343.78
2023-03-10T21:35:51.423Z,100346.53
2023-03-10T21:38:21.551Z,100350.06
2023-03-10T21:40:51.552Z,100349.97
2023-03-10T21:43:19.797Z,100357.94
2023-03-10T21:45:49.343Z,100354.19
2023-03-10T21:48:17.863Z,100344.38
2023-03-10T21:50:45.780Z,100351.50
2023-03-10T21:53:14.127Z,100338.19
2023-03-10T21:55:43.125Z,100319.56
2023-03-10T21:58:11.177Z,100322.22
2023-03-10T22:00:43.479Z,100330.22
2023-03-10T22:03:12.921Z,100351.41
2023-03-10T22:05:40.957Z,100344.97
2023-03-10T22:08:08.888Z,100350.31
2023-03-10T22:10:36.995Z,100382.88
2023-03-10T22:13:05.004Z,100389.91
2023-03-10T22:15:33.112Z,100395.84
2023-03-10T22:18:01.173Z,100403.69
2023-03-10T22:20:30.696Z,100410.72
2023-03-10T22:22:58.787Z,100411.34
2023-03-10T22:25:27.817Z,100398.84
2023-03-10T22:27:57.769Z,100386.38
2023-03-10T22:30:27.111Z,100391.97
2023-03-10T22:32:55.748Z,100392.91
2023-03-10T22:35:23.830Z,100394.88
2023-03-10T22:37:53.559Z,100386.03
2023-03-10T22:40:25.405Z,100386.03
2023-03-10T22:42:54.175Z,100379.72
2023-03-10T22:45:23.842Z,100383.25
2023-03-10T22:47:54.939Z,100380.44
2023-03-10T22:50:26.016Z,100383.00
2023-03-10T22:52:55.469Z,100389.31
2023-03-10T22:55:26.015Z,100384.69
2023-03-10T22:57:56.534Z,100384.69
2023-03-10T23:00:25.084Z,100373.19
2023-03-10T23:02:53.968Z,100363.38
2023-03-10T23:05:22.517Z,100352.72
2023-03-10T23:07:51.013Z,100357.34
2023-03-10T23:10:22.723Z,100347.63
2023-03-10T23:12:51.848Z,100353.22
2023-03-10T23:15:25.289Z,100371.97
2023-03-10T23:17:54.484Z,100371.38
2023-03-10T23:20:24.312Z,100382.13
2023-03-10T23:22:52.533Z,100381.41
2023-03-10T23:25:24.910Z,100394.88
2023-03-10T23:27:53.471Z,100394.03
2023-03-10T23:30:23.984Z,100397.63
2023-03-10T23:32:52.274Z,100398.47
2023-03-10T23:35:22.958Z,100390.47
2023-03-10T23:37:50.909Z,100389.63
2023-03-10T23:40:23.173Z,100380.81
2023-03-10T23:42:51.267Z,100386.03
2023-03-10T23:45:22.267Z,100373.56
2023-03-10T23:47:51.141Z,100373.56
2023-03-10T23:50:21.315Z,100370.78
2023-03-10T23:52:49.823Z,100366.28
2023-03-10T23:55:19.876Z,100356.59
2023-03-10T23:57:49.566Z,100363.50
